Time;durP1;ratioP1;P1;durP2;ratioP2;P2;SDS_P1;SDS_P2;PMS_P1;PMS_P2;Temp;Humidity;BMP_temperature;BMP_pressure;BME280_temperature;BME280_humidity;BME280_pressure;Samples;Min_cycle;Max_cycle;Signal;HPM_P1;HPM_P2
2022/06/24 00:00:05;;;;;;;1.98;0.70;;;;;;;17.29;100.00;99317.13;1678718;83;21637;-54
2022/06/24 00:02:32;;;;;;;2.98;0.80;;;;;;;17.27;100.00;99319.59;1680126;83;21101;-54
2022/06/24 00:05:02;;;;;;;1.70;1.00;;;;;;;17.25;100.00;99312.09;1712459;81;21082;-53
2022/06/24 00:07:30;;;;;;;2.25;0.70;;;;;;;17.25;100.00;99322.47;1711253;81;21094;-54
2022/06/24 00:09:57;;;;;;;2.67;0.60;;;;;;;17.26;100.00;99316.53;1714011;81;21493;-54
2022/06/24 00:12:27;;;;;;;1.80;0.80;;;;;;;17.27;100.00;99327.27;1718661;81;21742;-54
2022/06/24 00:15:00;;;;;;;4.30;0.70;;;;;;;17.28;100.00;99326.77;1715834;81;21050;-54
2022/06/24 00:17:28;;;;;;;0.60;0.60;;;;;;;17.28;100.00;99326.28;1720162;81;21073;-54
2022/06/24 00:20:01;;;;;;;1.10;0.70;;;;;;;17.28;100.00;99325.41;1723860;80;21204;-53
2022/06/24 00:22:29;;;;;;;1.98;0.80;;;;;;;17.27;100.00;99328.63;1723214;80;21121;-54
2022/06/24 00:25:17;;;;;;;0.75;0.68;;;;;;;17.26;100.00;99326.92;1721134;80;21632;-54
2022/06/24 00:28:00;;;;;;;1.30;0.80;;;;;;;17.25;100.00;99333.34;1720749;80;21884;-54
2022/06/24 00:30:26;;;;;;;2.65;0.70;;;;;;;17.24;100.00;99327.54;1716768;80;21025;-54
2022/06/24 00:32:52;;;;;;;1.45;0.60;;;;;;;17.26;100.00;99328.28;1722415;80;21678;-55
2022/06/24 00:35:19;;;;;;;1.98;0.90;;;;;;;17.26;100.00;99334.22;1687260;81;21699;-54
2022/06/24 00:37:46;;;;;;;0.90;0.80;;;;;;;17.26;100.00;99328.78;1719946;80;21142;-54
2022/06/24 00:40:18;;;;;;;0.80;0.70;;;;;;;17.28;100.00;99324.91;1722051;80;21556;-55
2022/06/24 00:42:46;;;;;;;7.00;0.90;;;;;;;17.29;100.00;99335.30;1720007;80;21097;-55
2022/06/24 00:45:38;;;;;;;4.60;0.80;;;;;;;17.28;100.00;99334.44;1723934;80;21074;-54
2022/06/24 00:48:14;;;;;;;0.80;0.70;;;;;;;17.29;100.00;99327.14;1732942;80;21054;-55
2022/06/24 00:50:46;;;;;;;0.75;0.60;;;;;;;17.30;100.00;99324.80;1718663;80;21970;-55
2022/06/24 00:53:13;;;;;;;2.87;0.70;;;;;;;17.31;100.00;99329.25;1722069;80;21110;-54
2022/06/24 00:55:41;;;;;;;3.42;0.70;;;;;;;17.29;100.00;99330.73;1726652;80;21046;-54
2022/06/24 00:58:16;;;;;;;1.85;0.70;;;;;;;17.29;100.00;99335.30;1724925;80;21089;-55
2022/06/24 01:00:47;;;;;;;0.80;0.60;;;;;;;17.29;100.00;99345.69;1722917;80;21025;-55
2022/06/24 01:03:14;;;;;;;1.45;0.70;;;;;;;17.32;100.00;99338.65;1721159;80;21282;-55
2022/06/24 01:05:42;;;;;;;0.70;0.62;;;;;;;17.33;100.00;99332.22;1724802;80;21465;-55
2022/06/24 01:08:11;;;;;;;0.70;0.70;;;;;;;17.35;100.00;99333.46;1724422;80;20958;-55
2022/06/24 01:10:37;;;;;;;0.80;0.70;;;;;;;17.35;100.00;99324.77;1723822;80;21026;-55
2022/06/24 01:13:09;;;;;;;1.12;0.80;;;;;;;17.35;100.00;99326.13;1723066;80;21006;-55
2022/06/24 01:15:36;;;;;;;2.90;0.80;;;;;;;17.33;100.00;99329.99;1719231;80;21121;-54
2022/06/24 01:18:03;;;;;;;0.98;0.80;;;;;;;17.27;100.00;99330.48;1720053;80;20954;-54
2022/06/24 01:20:30;;;;;;;1.10;0.70;;;;;;;17.23;100.00;99306.77;1727915;80;21312;-54
2022/06/24 01:22:56;;;;;;;2.62;0.80;;;;;;;17.21;100.00;99304.66;1725900;80;21429;-54
2022/06/24 01:25:23;;;;;;;1.02;0.90;;;;;;;17.20;100.00;99315.66;1728363;80;21468;-54
2022/06/24 01:27:49;;;;;;;2.70;0.90;;;;;;;17.17;100.00;99312.72;1726634;80;21500;-54
2022/06/24 01:30:16;;;;;;;2.55;1.00;;;;;;;17.17;100.00;99319.52;1731261;80;21524;-53
2022/06/24 01:32:42;;;;;;;1.82;1.22;;;;;;;17.16;100.00;99335.46;1728073;80;21535;-55
2022/06/24 01:35:09;;;;;;;1.70;0.98;;;;;;;17.14;100.00;99344.23;1728311;80;20917;-53
2022/06/24 01:37:35;;;;;;;3.27;1.10;;;;;;;17.09;100.00;99345.12;1727981;80;21444;-52
2022/06/24 01:40:02;;;;;;;3.10;0.90;;;;;;;17.07;100.00;99338.93;1730803;80;21048;-53
2022/06/24 01:42:29;;;;;;;1.10;1.00;;;;;;;17.07;100.00;99330.77;1731596;80;20907;-54
2022/06/24 01:44:55;;;;;;;2.50;1.22;;;;;;;17.07;100.00;99327.19;1727230;80;20859;-53
2022/06/24 01:47:21;;;;;;;2.08;0.90;;;;;;;17.10;100.00;99322.34;1726622;82;20930;-53
2022/06/24 01:49:48;;;;;;;2.37;1.00;;;;;;;17.10;100.00;99326.42;1730227;80;21041;-53
2022/06/24 01:52:14;;;;;;;1.00;0.90;;;;;;;17.10;100.00;99322.87;1722459;80;22685;-53
2022/06/24 01:54:41;;;;;;;4.55;1.00;;;;;;;17.08;100.00;99316.68;1728548;80;20903;-53
2022/06/24 01:57:07;;;;;;;1.20;1.00;;;;;;;17.05;100.00;99321.00;1727043;80;21358;-54
2022/06/24 01:59:34;;;;;;;1.00;0.90;;;;;;;17.01;100.00;99314.44;1727225;80;21548;-53
2022/06/24 02:02:00;;;;;;;1.70;1.00;;;;;;;17.01;100.00;99304.09;1728624;80;21065;-53
2022/06/24 02:04:27;;;;;;;1.80;0.90;;;;;;;16.98;100.00;99301.61;1726136;80;21650;-53
2022/06/24 02:06:54;;;;;;;1.50;1.20;;;;;;;16.97;100.00;99299.39;1726117;80;21913;-51
2022/06/24 02:09:20;;;;;;;1.32;1.10;;;;;;;16.97;100.00;99295.80;1727292;80;21552;-53
2022/06/24 02:14:31;;;;;;;2.08;1.50;;;;;;;16.96;100.00;99313.09;1723750;80;21073;-53
2022/06/24 02:16:58;;;;;;;4.62;1.02;;;;;;;16.94;100.00;99304.19;1725192;80;21193;-52
2022/06/24 02:19:25;;;;;;;6.95;1.07;;;;;;;16.92;100.00;99305.70;1729439;80;21455;-54
2022/06/24 02:21:51;;;;;;;6.67;1.82;;;;;;;16.93;100.00;99313.34;1701066;82;21774;-54
2022/06/24 02:24:18;;;;;;;3.98;0.95;;;;;;;16.90;100.00;99307.67;1729981;80;21058;-53
2022/06/24 02:26:45;;;;;;;4.17;0.90;;;;;;;16.90;100.00;99309.52;1728856;80;21049;-53
2022/06/24 02:29:12;;;;;;;1.95;0.80;;;;;;;16.89;100.00;99310.52;1731419;80;21158;-54
2022/06/24 02:33:27;;;;;;;4.03;1.40;;;;;;;16.95;100.00;99311.36;1795031;78;28156;-52
2022/06/24 02:35:53;;;;;;;1.25;1.02;;;;;;;16.92;100.00;99311.14;1782197;78;20985;-52
2022/06/24 02:38:20;;;;;;;1.15;0.80;;;;;;;16.95;100.00;99315.44;1760355;80;22346;-51
2022/06/24 02:40:47;;;;;;;1.57;0.82;;;;;;;16.94;100.00;99315.07;1730378;81;21005;-53
2022/06/24 02:43:23;;;;;;;2.30;0.80;;;;;;;16.93;100.00;99314.70;1694295;82;21099;-52
2022/06/24 02:46:01;;;;;;;2.47;0.82;;;;;;;16.92;100.00;99316.58;1699188;83;20982;-52
2022/06/24 02:48:27;;;;;;;1.67;0.60;;;;;;;16.91;100.00;99318.05;1700255;82;21124;-53
2022/06/24 02:50:56;;;;;;;1.60;0.75;;;;;;;16.91;100.00;99317.56;1700614;82;21796;-51
2022/06/24 02:53:23;;;;;;;0.82;0.72;;;;;;;16.91;100.00;99318.05;1694633;82;21523;-53
2022/06/24 02:55:52;;;;;;;1.70;0.80;;;;;;;16.91;100.00;99319.41;1691250;82;20993;-53
2022/06/24 02:58:18;;;;;;;1.47;0.70;;;;;;;16.93;100.00;99314.70;1683303;83;21584;-53
2022/06/24 03:00:45;;;;;;;8.13;0.80;;;;;;;16.94;100.00;99321.38;1677353;83;21550;-51
2022/06/24 03:03:13;;;;;;;1.55;0.68;;;;;;;16.95;100.00;99319.03;1678831;83;21151;-53
2022/06/24 03:05:40;;;;;;;3.67;0.70;;;;;;;16.97;100.00;99321.63;1686407;83;21074;-55
2022/06/24 03:08:11;;;;;;;2.05;0.70;;;;;;;16.99;100.00;99327.32;1716679;81;21029;-54
2022/06/24 03:10:38;;;;;;;1.00;0.70;;;;;;;17.02;100.00;99328.91;1718963;81;21073;-55
2022/06/24 03:13:05;;;;;;;1.75;0.70;;;;;;;17.04;100.00;99328.29;1712241;81;21163;-54
2022/06/24 03:15:31;;;;;;;1.52;0.70;;;;;;;17.06;100.00;99327.68;1714440;81;21773;-54
2022/06/24 03:17:58;;;;;;;1.15;0.70;;;;;;;17.06;100.00;99315.45;1685223;83;21512;-53
2022/06/24 03:20:25;;;;;;;2.08;0.70;;;;;;;17.06;100.00;99322.24;1682412;83;21124;-55
2022/06/24 03:22:52;;;;;;;2.45;0.70;;;;;;;17.04;100.00;99325.57;1706567;81;21104;-52
2022/06/24 03:25:18;;;;;;;0.80;0.60;;;;;;;17.02;100.00;99323.46;1708584;81;21451;-54
2022/06/24 03:27:45;;;;;;;4.00;0.60;;;;;;;17.01;100.00;99318.52;1719933;81;23553;-53
2022/06/24 03:30:12;;;;;;;2.83;0.60;;;;;;;17.00;100.00;99322.75;1678270;83;21093;-53
2022/06/24 03:32:39;;;;;;;5.10;0.60;;;;;;;17.01;100.00;99317.69;1709061;81;21093;-52
2022/06/24 03:35:07;;;;;;;2.45;0.60;;;;;;;17.00;100.00;99321.39;1694029;82;21088;-53
2022/06/24 03:37:33;;;;;;;5.20;0.60;;;;;;;17.02;100.00;99316.17;1687800;82;21573;-52
2022/06/24 03:40:00;;;;;;;1.52;0.60;;;;;;;17.06;100.00;99315.94;1689755;82;21811;-52
2022/06/24 03:42:26;;;;;;;1.47;0.50;;;;;;;17.12;100.00;99318.14;1692720;82;21659;-53
2022/06/24 03:44:53;;;;;;;1.27;0.60;;;;;;;17.15;100.00;99309.25;1684656;82;21553;-53
2022/06/24 03:47:20;;;;;;;0.50;0.50;;;;;;;17.19;100.00;99312.08;1690210;83;21158;-53
2022/06/24 03:49:46;;;;;;;0.88;0.50;;;;;;;17.22;100.00;99305.53;1687953;82;21909;-53
2022/06/24 03:52:13;;;;;;;2.25;0.78;;;;;;;17.24;100.00;99307.63;1690803;82;21877;-53
2022/06/24 03:54:39;;;;;;;2.35;0.50;;;;;;;17.24;100.00;99304.42;1699765;81;21040;-52
2022/06/24 03:57:06;;;;;;;2.85;0.50;;;;;;;17.26;100.00;99313.33;1697779;82;21484;-52
2022/06/24 03:59:32;;;;;;;5.12;0.50;;;;;;;17.28;100.00;99312.67;1699993;81;21074;-53
2022/06/24 04:01:59;;;;;;;5.12;1.95;;;;;;;17.32;100.00;99314.66;1679826;82;21388;-52
2022/06/24 04:04:25;;;;;;;3.60;1.47;;;;;;;17.36;100.00;99317.48;1696153;82;21498;-52
2022/06/24 04:06:51;;;;;;;0.82;0.60;;;;;;;17.38;100.00;99315.01;1683618;82;20989;-52
2022/06/24 04:09:18;;;;;;;1.27;0.50;;;;;;;17.43;100.00;99324.66;1693096;82;21002;-52
2022/06/24 04:11:45;;;;;;;2.05;0.50;;;;;;;17.45;100.00;99324.02;1694294;82;20978;-52
2022/06/24 04:14:11;;;;;;;1.87;0.50;;;;;;;17.45;100.00;99321.29;1688704;83;21029;-51
2022/06/24 04:16:38;;;;;;;0.50;0.50;;;;;;;17.46;100.00;99327.11;1688611;82;21747;-53
2022/06/24 04:19:06;;;;;;;2.42;0.50;;;;;;;17.47;100.00;99327.48;1676671;83;20993;-52
2022/06/24 04:21:32;;;;;;;1.57;0.50;;;;;;;17.50;100.00;99324.52;1689546;82;21116;-52
2022/06/24 04:23:58;;;;;;;6.60;0.50;;;;;;;17.55;100.00;99323.63;1711216;81;21487;-53
2022/06/24 04:26:25;;;;;;;3.08;0.50;;;;;;;17.58;100.00;99320.16;1710990;81;21386;-53
2022/06/24 04:28:51;;;;;;;1.30;0.50;;;;;;;17.62;100.00;99316.70;1716480;81;21755;-53
2022/06/24 04:31:17;;;;;;;5.50;0.60;;;;;;;17.65;100.00;99317.81;1720960;81;21013;-51
2022/06/24 04:33:45;;;;;;;2.12;0.60;;;;;;;17.67;100.00;99320.78;1685868;82;21511;-53
2022/06/24 04:36:12;;;;;;;1.15;0.50;;;;;;;17.69;100.00;99328.83;1685961;82;20995;-53
2022/06/24 04:38:42;;;;;;;2.52;0.50;;;;;;;17.70;100.00;99327.80;1703199;82;21069;-52
2022/06/24 04:41:18;;;;;;;2.60;0.50;;;;;;;17.72;100.00;99327.19;1716504;81;22375;-53
2022/06/24 04:43:45;;;;;;;3.10;0.60;;;;;;;17.78;100.00;99334.83;1714881;81;21021;-52
2022/06/24 04:46:11;;;;;;;0.60;0.40;;;;;;;17.87;100.00;99342.72;1723296;81;20973;-53
2022/06/24 04:48:38;;;;;;;2.65;0.50;;;;;;;17.96;100.00;99332.41;1719695;81;21504;-53
2022/06/24 04:51:06;;;;;;;1.07;0.50;;;;;;;18.04;100.00;99340.28;1713160;81;21477;-53
2022/06/24 04:53:32;;;;;;;2.25;0.50;;;;;;;18.11;100.00;99331.98;1690277;81;21145;-54
2022/06/24 04:55:59;;;;;;;0.70;0.60;;;;;;;18.21;100.00;99344.29;1701206;81;21578;-54
2022/06/24 04:58:26;;;;;;;1.55;0.55;;;;;;;18.28;100.00;99337.84;1675535;83;22344;-54
2022/06/24 05:00:52;;;;;;;1.95;0.60;;;;;;;18.34;100.00;99340.02;1700820;82;21104;-54
2022/06/24 05:03:19;;;;;;;1.50;0.60;;;;;;;18.38;100.00;99331.93;1716919;82;21071;-55
2022/06/24 05:05:46;;;;;;;2.00;0.72;;;;;;;18.42;100.00;99342.94;1719025;81;21214;-54
2022/06/24 05:08:14;;;;;;;2.60;0.47;;;;;;;18.47;100.00;99347.48;1678792;83;21769;-53
2022/06/24 05:10:41;;;;;;;1.42;0.60;;;;;;;18.52;100.00;99343.88;1690038;82;21131;-53
2022/06/24 05:13:09;;;;;;;2.55;0.90;;;;;;;18.58;100.00;99335.69;1707908;81;21092;-55
2022/06/24 05:15:35;;;;;;;3.60;0.60;;;;;;;18.63;100.00;99341.62;1701098;82;21124;-55
2022/06/24 05:18:03;;;;;;;6.15;0.55;;;;;;;18.66;100.00;99345.41;1673504;84;22700;-55
2022/06/24 05:20:30;;;;;;;6.20;0.50;;;;;;;18.70;100.00;99339.58;1691438;82;21087;-54
2022/06/24 05:22:57;;;;;;;1.32;0.57;;;;;;;18.73;100.00;99339.28;1677636;82;20993;-54
2022/06/24 05:25:24;;;;;;;2.50;0.80;;;;;;;18.76;100.00;99340.39;1681817;82;21053;-55
2022/06/24 05:27:50;;;;;;;1.30;0.40;;;;;;;18.80;100.00;99340.96;1692751;82;21112;-55
2022/06/24 05:30:17;;;;;;;3.12;0.42;;;;;;;18.83;100.00;99344.30;1695864;82;21147;-55
2022/06/24 05:32:43;;;;;;;0.50;0.40;;;;;;;18.86;100.00;99338.58;1691223;82;21487;-53
2022/06/24 05:35:10;;;;;;;3.60;0.50;;;;;;;18.91;100.00;99349.06;1693672;82;21061;-53
2022/06/24 05:37:38;;;;;;;2.05;0.60;;;;;;;18.99;100.00;99355.20;1698147;82;21005;-52
2022/06/24 05:40:07;;;;;;;1.82;0.40;;;;;;;19.04;100.00;99354.30;1679373;82;21149;-53
2022/06/24 05:42:34;;;;;;;0.55;0.50;;;;;;;19.12;100.00;99359.94;1688318;82;21238;-54
2022/06/24 05:45:01;;;;;;;2.22;0.50;;;;;;;19.20;100.00;99356.02;1679797;82;21126;-54
2022/06/24 05:47:27;;;;;;;1.72;0.40;;;;;;;19.28;100.00;99355.69;1683636;83;21081;-53
2022/06/24 05:49:54;;;;;;;2.80;0.50;;;;;;;19.37;100.00;99354.00;1680684;82;21136;-54
2022/06/24 05:55:03;;;;;;;3.75;0.50;;;;;;;19.51;100.00;99361.81;1633219;84;21294;-53
2022/06/24 05:57:30;;;;;;;0.50;0.42;;;;;;;19.60;100.00;99363.70;1708392;81;21093;-54
2022/06/24 05:59:56;;;;;;;0.55;0.40;;;;;;;19.67;100.00;99362.63;1690429;82;21109;-54
2022/06/24 06:02:23;;;;;;;2.95;0.50;;;;;;;19.72;100.00;99358.13;1709330;81;21167;-52
2022/06/24 06:04:50;;;;;;;0.50;0.40;;;;;;;19.75;100.00;99361.92;1689896;83;21091;-54
2022/06/24 06:07:17;;;;;;;1.57;0.40;;;;;;;19.77;100.00;99359.92;1679193;83;21122;-54
2022/06/24 06:09:43;;;;;;;1.20;0.40;;;;;;;19.79;100.00;99364.75;1695288;81;21096;-54
2022/06/24 06:12:10;;;;;;;1.02;0.50;;;;;;;19.82;100.00;99374.87;1698617;82;21152;-53
2022/06/24 06:14:36;;;;;;;3.75;0.40;;;;;;;19.86;100.00;99363.17;1698233;81;21050;-54
2022/06/24 06:17:04;;;;;;;0.47;0.40;;;;;;;19.91;100.00;99356.27;1712134;81;21157;-53
2022/06/24 06:19:32;;;;;;;2.25;0.50;;;;;;;19.95;100.00;99348.16;1682379;83;21088;-55
2022/06/24 06:21:58;;;;;;;1.37;0.50;;;;;;;20.00;100.00;99358.64;1710887;81;21152;-54
2022/06/24 06:24:25;;;;;;;0.80;0.50;;;;;;;20.05;100.00;99363.70;1683359;83;21104;-54
2022/06/24 06:26:51;;;;;;;0.65;0.65;;;;;;;20.09;100.00;99359.66;1711726;81;21168;-54
2022/06/24 06:29:18;;;;;;;1.72;0.40;;;;;;;20.15;100.00;99363.20;1674966;83;21034;-54
2022/06/24 06:31:44;;;;;;;1.20;0.57;;;;;;;20.21;100.00;99359.38;1677798;82;21833;-55
2022/06/24 06:34:10;;;;;;;2.77;0.50;;;;;;;20.27;100.00;99361.53;1681035;83;21097;-54
2022/06/24 06:36:37;;;;;;;3.58;0.50;;;;;;;20.34;100.00;99361.84;1670309;83;21573;-54
2022/06/24 06:39:03;;;;;;;5.08;0.50;;;;;;;20.39;100.00;99361.78;1677210;83;21098;-54
2022/06/24 06:41:31;;;;;;;1.80;0.55;;;;;;;20.45;100.00;99365.80;1701319;82;21592;-56
2022/06/24 06:43:57;;;;;;;3.05;0.60;;;;;;;20.50;100.00;99372.20;1715300;81;22641;-55
2022/06/24 06:46:24;;;;;;;2.65;0.50;;;;;;;20.53;100.00;99365.92;1685795;82;21072;-53
2022/06/24 06:48:50;;;;;;;4.65;0.60;;;;;;;20.59;100.00;99375.41;1706683;82;21050;-53
2022/06/24 06:51:17;;;;;;;0.60;0.50;;;;;;;20.63;100.00;99381.81;1687374;83;21136;-53
2022/06/24 06:53:43;;;;;;;0.68;0.50;;;;;;;20.67;100.00;99383.77;1716372;81;21136;-53
2022/06/24 06:56:10;;;;;;;1.82;0.50;;;;;;;20.69;100.00;99383.95;1678751;83;21075;-53
2022/06/24 06:58:37;;;;;;;2.80;0.50;;;;;;;20.71;100.00;99384.68;1689723;82;21177;-51
2022/06/24 07:01:03;;;;;;;0.50;0.42;;;;;;;20.72;100.00;99386.41;1719691;81;21085;-53
2022/06/24 07:03:30;;;;;;;0.93;0.57;;;;;;;20.73;100.00;99383.17;1719500;81;21106;-52
2022/06/24 07:05:56;;;;;;;1.57;0.57;;;;;;;20.74;100.00;99388.50;1712258;81;21029;-55
2022/06/24 07:08:23;;;;;;;0.72;0.55;;;;;;;20.75;100.00;99387.49;1714176;81;21069;-53
2022/06/24 07:10:50;;;;;;;1.30;0.60;;;;;;;20.80;100.00;99391.64;1680126;83;21519;-52
2022/06/24 07:13:16;;;;;;;1.12;0.60;;;;;;;20.82;100.00;99390.50;1715687;81;21419;-53
2022/06/24 07:15:44;;;;;;;0.60;0.50;;;;;;;20.86;100.00;99389.17;1700029;81;21115;-53
2022/06/24 07:18:11;;;;;;;0.60;0.60;;;;;;;20.90;100.00;99385.14;1696268;82;21066;-52
2022/06/24 07:20:37;;;;;;;0.55;0.50;;;;;;;20.95;100.00;99381.45;1690783;82;21611;-53
2022/06/24 07:23:05;;;;;;;2.98;0.70;;;;;;;20.99;100.00;99381.52;1694758;82;21077;-53
2022/06/24 07:25:31;;;;;;;4.00;0.50;;;;;;;21.05;100.00;99381.42;1694256;82;21121;-53
2022/06/24 07:27:58;;;;;;;0.88;0.47;;;;;;;21.10;100.00;99383.19;1695013;83;22298;-55
2022/06/24 07:30:25;;;;;;;2.00;0.60;;;;;;;21.14;100.00;99384.13;1687274;83;21081;-53
2022/06/24 07:32:52;;;;;;;1.02;0.50;;;;;;;21.23;100.00;99378.80;1696279;82;21234;-51
2022/06/24 07:35:18;;;;;;;0.50;0.50;;;;;;;21.29;100.00;99385.03;1693605;83;21152;-54
2022/06/24 07:37:44;;;;;;;2.10;0.50;;;;;;;21.36;100.00;99384.27;1688606;82;21180;-53
2022/06/24 07:40:11;;;;;;;4.22;0.55;;;;;;;21.43;100.00;99384.55;1686735;82;21503;-53
2022/06/24 07:42:37;;;;;;;0.60;0.50;;;;;;;21.48;100.00;99393.16;1697411;82;20985;-53
2022/06/24 07:45:05;;;;;;;3.92;0.50;;;;;;;21.52;100.00;99386.38;1688049;83;22174;-54
2022/06/24 07:47:34;;;;;;;3.08;0.50;;;;;;;21.57;100.00;99396.36;1712198;81;21531;-53
2022/06/24 07:50:01;;;;;;;6.90;0.60;;;;;;;21.57;100.00;99390.88;1716630;81;21092;-53
2022/06/24 07:52:28;;;;;;;2.12;0.50;;;;;;;21.59;100.00;99387.49;1691296;82;21866;-53
2022/06/24 07:56:56;;;;;;;1.98;0.57;;;;;;;21.61;100.00;99387.31;1686192;82;21729;-52
2022/06/24 07:57:22;;;;;;;0.90;0.65;;;;;;;21.65;100.00;99380.53;1680346;82;21300;-52
2022/06/24 07:59:49;;;;;;;2.55;0.60;;;;;;;21.71;100.00;99388.98;1692755;82;21405;-52
2022/06/24 08:02:16;;;;;;;1.20;0.50;;;;;;;21.76;100.00;99392.66;1710608;82;21244;-53
2022/06/24 08:04:43;;;;;;;0.85;0.62;;;;;;;21.76;100.00;99392.15;1707847;81;21091;-53
2022/06/24 08:07:09;;;;;;;1.90;0.60;;;;;;;21.78;100.00;99401.05;1699088;82;21124;-52
2022/06/24 08:09:37;;;;;;;1.80;0.57;;;;;;;21.78;100.00;99398.31;1704341;82;21416;-53
2022/06/24 08:12:06;;;;;;;4.22;0.57;;;;;;;21.78;100.00;99395.57;1686217;82;21045;-52
2022/06/24 08:14:34;;;;;;;2.22;0.65;;;;;;;21.78;100.00;99394.20;1699018;82;21021;-53
2022/06/24 08:17:01;;;;;;;2.45;0.50;;;;;;;21.77;100.00;99396.62;1693597;82;21061;-52
2022/06/24 08:19:27;;;;;;;5.15;0.60;;;;;;;21.75;100.00;99393.16;1689091;83;21545;-54
2022/06/24 08:21:53;;;;;;;2.00;0.50;;;;;;;21.74;100.00;99387.83;1674696;83;21480;-53
2022/06/24 08:24:20;;;;;;;2.10;0.60;;;;;;;21.75;100.00;99389.05;1685844;83;21517;-53
2022/06/24 08:26:46;;;;;;;0.82;0.50;;;;;;;21.78;100.00;99390.09;1683230;83;21524;-52
2022/06/24 08:29:13;;;;;;;1.52;0.60;;;;;;;21.81;100.00;99393.91;1684447;82;21750;-54
2022/06/24 08:31:39;;;;;;;4.10;0.50;;;;;;;21.81;100.00;99385.69;1686654;83;21157;-53
2022/06/24 08:34:06;;;;;;;0.70;0.57;;;;;;;21.83;100.00;99386.41;1705402;81;21755;-52
2022/06/24 08:36:33;;;;;;;3.83;0.62;;;;;;;21.87;100.00;99395.16;1711708;81;21505;-53
2022/06/24 08:39:00;;;;;;;5.35;0.85;;;;;;;21.90;100.00;99390.75;1708578;81;21125;-51
2022/06/24 08:41:26;;;;;;;2.95;0.62;;;;;;;21.97;100.00;99390.98;1712801;81;21312;-53
2022/06/24 08:43:54;;;;;;;1.20;0.57;;;;;;;22.01;100.00;99390.57;1677529;83;21098;-53
2022/06/24 08:46:22;;;;;;;2.22;0.60;;;;;;;22.02;100.00;99389.55;1695067;82;22537;-52
2022/06/24 08:48:51;;;;;;;2.58;0.60;;;;;;;22.05;100.00;99389.23;1698059;82;21132;-52
2022/06/24 08:51:18;;;;;;;3.58;0.60;;;;;;;22.09;100.00;99393.91;1661797;84;21085;-52
2022/06/24 08:53:45;;;;;;;2.10;0.62;;;;;;;22.13;100.00;99392.55;1685273;82;21581;-53
2022/06/24 08:56:12;;;;;;;3.72;0.60;;;;;;;22.13;100.00;99392.05;1690048;82;21073;-53
2022/06/24 08:58:40;;;;;;;3.10;0.60;;;;;;;22.14;100.00;99388.30;1688734;83;21104;-52
2022/06/24 09:01:07;;;;;;;1.75;0.70;;;;;;;22.19;100.00;99390.59;1691372;82;21600;-53
2022/06/24 09:03:34;;;;;;;1.87;0.60;;;;;;;22.19;100.00;99386.47;1688864;82;21100;-53
2022/06/24 09:06:15;;;;;;;1.45;0.70;;;;;;;22.18;100.00;99396.58;1692193;83;21064;-54
2022/06/24 09:08:49;;;;;;;2.22;0.60;;;;;;;22.18;100.00;99395.20;1690771;82;21622;-53
2022/06/24 09:11:16;;;;;;;2.90;0.60;;;;;;;22.22;100.00;99394.36;1661034;84;21533;-52
2022/06/24 09:13:55;;;;;;;5.58;0.60;;;;;;;22.25;100.00;99385.84;1684291;82;21143;-53
2022/06/24 09:16:25;;;;;;;0.60;0.60;;;;;;;22.29;100.00;99371.31;1677074;82;21169;-54
2022/06/24 09:18:57;;;;;;;0.68;0.60;;;;;;;22.34;100.00;99388.14;1694828;82;21543;-52
2022/06/24 09:21:32;;;;;;;2.17;0.80;;;;;;;22.37;100.00;99376.33;1699931;82;21078;-52
2022/06/24 09:24:00;;;;;;;0.50;0.50;;;;;;;22.40;100.00;99374.66;1715004;81;21163;-53
2022/06/24 09:26:41;;;;;;;0.60;0.60;;;;;;;22.42;100.00;99375.37;1708604;81;21262;-52
2022/06/24 09:29:14;;;;;;;2.83;0.70;;;;;;;22.45;100.00;99369.58;1701595;82;21043;-53
2022/06/24 09:31:40;;;;;;;0.60;0.60;;;;;;;22.49;100.00;99371.47;1708173;81;21065;-52
2022/06/24 09:34:14;;;;;;;0.80;0.50;;;;;;;22.56;100.00;99366.56;1718284;81;21485;-53
2022/06/24 09:36:43;;;;;;;3.43;0.70;;;;;;;22.64;100.00;99358.39;1687943;82;21790;-53
2022/06/24 09:39:12;;;;;;;1.72;0.70;;;;;;;22.72;100.00;99359.47;1694405;82;21088;-53
2022/06/24 09:41:49;;;;;;;0.50;0.50;;;;;;;22.81;100.00;99355.80;1697218;82;21126;-53
2022/06/24 09:44:16;;;;;;;1.35;0.60;;;;;;;22.90;100.00;99352.09;1684845;83;21307;-53
2022/06/24 09:46:42;;;;;;;4.60;0.70;;;;;;;23.04;100.00;99347.39;1721418;81;21096;-53
2022/06/24 09:49:15;;;;;;;1.80;0.60;;;;;;;23.18;100.00;99344.02;1707175;82;21364;-54
2022/06/24 09:51:44;;;;;;;3.08;0.60;;;;;;;23.33;100.00;99336.88;1700350;82;21634;-54
2022/06/24 09:54:12;;;;;;;1.77;0.60;;;;;;;23.50;100.00;99340.59;1698302;82;21135;-52
2022/06/24 09:56:38;;;;;;;3.52;0.70;;;;;;;23.67;100.00;99347.86;1711879;81;21553;-54
2022/06/24 10:01:50;;;;;;;4.53;0.60;;;;;;;23.82;100.00;99336.23;1718875;81;21378;-53
2022/06/24 10:04:22;;;;;;;1.45;0.60;;;;;;;23.80;100.00;99343.78;1721415;81;21488;-53
2022/06/24 10:06:47;;;;;;;1.25;0.70;;;;;;;23.74;100.00;99332.42;1708076;82;21070;-53
2022/06/24 10:09:15;;;;;;;1.25;0.60;;;;;;;23.72;100.00;99341.37;1722106;81;20922;-54
2022/06/24 10:11:42;;;;;;;1.35;0.60;;;;;;;23.70;100.00;99344.79;1692290;81;20982;-53
2022/06/24 10:14:11;;;;;;;2.02;0.62;;;;;;;23.69;100.00;99344.95;1718611;81;21387;-54
2022/06/24 10:16:37;;;;;;;3.55;0.62;;;;;;;23.65;100.00;99344.92;1716425;81;20918;-53
2022/06/24 10:19:04;;;;;;;2.47;0.68;;;;;;;23.58;100.00;99346.63;1713396;81;21495;-54
2022/06/24 10:21:31;;;;;;;3.08;0.70;;;;;;;23.52;100.00;99344.03;1713365;81;21507;-54
2022/06/24 10:23:58;;;;;;;1.17;0.60;;;;;;;23.51;100.00;99356.05;1686942;82;21077;-53
2022/06/24 10:26:34;;;;;;;1.65;0.50;;;;;;;23.47;100.00;99353.27;1678100;83;21209;-54
2022/06/24 10:29:09;;;;;;;1.80;0.70;;;;;;;23.43;100.00;99347.74;1683821;83;21121;-54
2022/06/24 10:31:58;;;;;;;0.98;0.98;;;;;;;23.43;100.00;99346.37;1681672;83;21108;-54
2022/06/24 10:34:28;;;;;;;0.70;0.70;;;;;;;23.44;100.00;99349.98;1713572;81;21037;-55
2022/06/24 10:36:59;;;;;;;0.60;0.60;;;;;;;23.44;100.00;99337.62;1713610;81;21104;-54
2022/06/24 10:39:28;;;;;;;2.45;0.90;;;;;;;23.46;100.00;99340.55;1689028;82;21247;-53
2022/06/24 10:42:07;;;;;;;2.42;1.05;;;;;;;23.49;100.00;99348.98;1689060;83;21587;-54
2022/06/24 10:44:38;;;;;;;5.65;0.60;;;;;;;23.50;100.00;99343.84;1708396;81;20987;-54
2022/06/24 10:47:16;;;;;;;1.95;0.57;;;;;;;23.49;100.00;99337.48;1716663;81;21141;-54
2022/06/24 10:49:59;;;;;;;2.08;0.60;;;;;;;23.50;100.00;99339.72;1700811;82;21050;-54
2022/06/24 10:52:51;;;;;;;1.93;0.60;;;;;;;23.53;100.00;99336.66;1708101;82;21132;-54
2022/06/24 10:55:28;;;;;;;1.77;0.60;;;;;;;23.59;100.00;99330.48;1704820;81;21005;-55
2022/06/24 10:58:04;;;;;;;3.67;0.70;;;;;;;23.68;100.00;99320.73;1688508;83;21101;-54
2022/06/24 11:00:48;;;;;;;2.37;0.60;;;;;;;23.82;100.00;99320.58;1699560;81;21088;-53
2022/06/24 11:03:14;;;;;;;2.42;1.20;;;;;;;23.93;100.00;99314.77;1688359;81;21076;-53
2022/06/24 11:05:45;;;;;;;2.55;0.60;;;;;;;24.07;100.00;99316.84;1695046;83;21604;-54
2022/06/24 11:08:20;;;;;;;2.87;0.60;;;;;;;24.18;100.00;99318.41;1677235;83;21259;-55
2022/06/24 11:10:48;;;;;;;1.60;0.70;;;;;;;24.27;100.00;99313.80;1692142;82;21132;-54
2022/06/24 11:13:16;;;;;;;3.42;0.78;;;;;;;24.33;100.00;99318.64;1707540;82;21754;-54
2022/06/24 11:15:47;;;;;;;3.40;1.32;;;;;;;24.34;100.00;99320.33;1708921;82;21596;-54
2022/06/24 11:18:23;;;;;;;7.60;0.60;;;;;;;24.34;100.00;99334.08;1712638;81;21151;-55
2022/06/24 11:20:56;;;;;;;2.10;0.60;;;;;;;24.32;100.00;99324.66;1687793;83;21088;-55
2022/06/24 11:23:25;;;;;;;1.65;0.60;;;;;;;24.31;100.00;99313.81;1670900;83;21078;-54
2022/06/24 11:25:56;;;;;;;0.70;0.60;;;;;;;24.34;100.00;99314.83;1717851;81;21058;-55
2022/06/24 11:28:35;;;;;;;2.52;0.60;;;;;;;24.42;100.00;99328.06;1693697;82;21101;-55
2022/06/24 11:31:24;;;;;;;5.47;0.60;;;;;;;24.53;100.00;99324.63;1683497;82;21265;-54
2022/06/24 11:34:08;;;;;;;1.40;0.60;;;;;;;24.61;100.00;99319.11;1682609;82;21575;-54
2022/06/24 11:36:37;;;;;;;1.10;0.60;;;;;;;24.65;100.00;99312.24;1685681;82;21147;-55
2022/06/24 11:39:05;;;;;;;0.53;0.50;;;;;;;24.65;100.00;99315.00;1713391;81;21121;-55